createdAt,value
2022-09-05T00:02:01.494Z,3.15
2022-09-05T00:04:28.592Z,2.95
2022-09-05T00:07:36.044Z,3.08
2022-09-05T00:10:07.168Z,3.40
2022-09-05T00:12:36.216Z,3.70
2022-09-05T00:15:16.218Z,3.28
2022-09-05T00:23:13.495Z,3.10
2022-09-05T00:24:28.564Z,3.47
2022-09-05T00:24:42.164Z,3.20
2022-09-05T00:27:23.059Z,2.95
2022-09-05T00:31:08.617Z,3.22
2022-09-05T00:33:17.239Z,2.90
2022-09-05T00:35:51.040Z,3.25
2022-09-05T00:38:36.444Z,3.13
2022-09-05T00:41:09.326Z,2.80
2022-09-05T00:43:42.744Z,3.45
2022-09-05T00:46:22.505Z,2.95
2022-09-05T00:49:17.410Z,3.13
2022-09-05T00:52:12.977Z,3.00
2022-09-05T00:55:07.738Z,3.30
2022-09-05T00:57:56.199Z,3.15
2022-09-05T01:00:44.524Z,2.97
2022-09-05T01:03:30.160Z,3.22
2022-09-05T01:06:15.972Z,3.05
2022-09-05T01:08:50.119Z,3.22
2022-09-05T01:11:47.805Z,3.10
2022-09-05T01:14:48.462Z,3.20
2022-09-05T01:17:21.183Z,2.50
2022-09-05T01:20:18.584Z,2.63
2022-09-05T01:23:09.156Z,3.00
2022-09-05T01:25:55.106Z,3.05
2022-09-05T01:29:16.373Z,2.80
2022-09-05T01:31:43.481Z,3.03
2022-09-05T01:34:32.390Z,2.97
2022-09-05T01:37:26.557Z,2.80
2022-09-05T01:40:25.125Z,3.05
2022-09-05T01:43:10.705Z,3.00
2022-09-05T01:46:11.877Z,3.20
2022-09-05T01:49:07.659Z,3.20
2022-09-05T01:52:05.423Z,3.42
2022-09-05T01:54:44.505Z,2.87
2022-09-05T01:57:19.731Z,3.08
2022-09-05T01:59:54.048Z,3.20
2022-09-05T02:02:50.814Z,3.10
2022-09-05T02:05:48.462Z,2.70
2022-09-05T02:08:16.390Z,3.20
2022-09-05T02:11:13.382Z,2.88
2022-09-05T02:13:57.075Z,3.30
2022-09-05T02:16:39.203Z,3.20
2022-09-05T02:19:31.719Z,3.13
2022-09-05T02:22:10.637Z,2.97
2022-09-05T02:24:58.489Z,2.78
2022-09-05T02:28:05.113Z,3.42
2022-09-05T02:31:00.350Z,3.00
2022-09-05T02:33:53.365Z,3.20
2022-09-05T02:36:38.620Z,3.00
2022-09-05T02:45:02.201Z,3.40
2022-09-05T02:45:10.843Z,3.13
2022-09-05T02:46:18.194Z,2.90
2022-09-05T02:50:00.198Z,3.38
2022-09-05T02:57:27.516Z,3.10
2022-09-05T02:57:34.043Z,3.20
2022-09-05T02:58:09.100Z,3.33
2022-09-05T03:00:44.782Z,3.72
2022-09-05T03:03:17.769Z,3.25
2022-09-05T03:06:35.110Z,3.40
2022-09-05T03:09:21.801Z,3.42
2022-09-05T03:12:28.369Z,3.35
2022-09-05T03:15:23.583Z,3.20
2022-09-05T03:18:20.111Z,4.13
2022-09-05T03:21:19.102Z,3.20
2022-09-05T03:24:22.683Z,3.80
2022-09-05T03:27:01.834Z,3.28
2022-09-05T03:29:58.511Z,3.47
2022-09-05T03:32:43.066Z,3.40
2022-09-05T03:35:44.137Z,3.45
2022-09-05T03:38:31.146Z,3.40
2022-09-05T03:41:24.081Z,3.20
2022-09-05T03:44:00.989Z,3.30
2022-09-05T03:46:42.827Z,3.08
2022-09-05T03:51:11.940Z,3.58
2022-09-05T03:57:06.281Z,3.30
2022-09-05T03:57:27.375Z,3.50
2022-09-05T03:59:13.383Z,3.63
2022-09-05T04:07:48.151Z,3.60
2022-09-05T04:08:18.932Z,3.13
2022-09-05T04:08:49.434Z,4.03
2022-09-05T04:11:42.180Z,4.00
2022-09-05T04:14:42.591Z,4.47
2022-09-05T04:17:40.365Z,5.00
2022-09-05T04:20:43.987Z,4.35
2022-09-05T04:23:13.945Z,4.22
2022-09-05T04:26:11.606Z,3.97
2022-09-05T04:31:20.919Z,3.42
2022-09-05T04:33:53.753Z,3.78
2022-09-05T04:36:28.848Z,3.60
2022-09-05T04:39:20.100Z,3.88
2022-09-05T04:41:53.771Z,3.97
2022-09-05T04:44:29.721Z,4.07
2022-09-05T04:47:08.168Z,3.20
2022-09-05T04:49:44.316Z,3.50
2022-09-05T04:52:31.829Z,3.80
2022-09-05T04:55:02.342Z,3.65
2022-09-05T04:57:37.014Z,3.42
2022-09-05T05:05:58.241Z,3.33
2022-09-05T05:06:15.297Z,3.20
2022-09-05T05:06:42.336Z,3.40
2022-09-05T05:09:06.931Z,2.80
2022-09-05T05:17:40.367Z,3.03
2022-09-05T05:18:06.722Z,3.20
2022-09-05T05:18:39.797Z,3.53
2022-09-05T05:21:18.238Z,3.70
2022-09-05T05:23:55.632Z,4.00
2022-09-05T05:26:41.435Z,4.15
2022-09-05T05:29:19.400Z,4.25
2022-09-05T05:31:49.918Z,4.70
2022-09-05T05:34:29.214Z,5.30
2022-09-05T05:37:03.339Z,4.25
2022-09-05T05:39:33.023Z,4.88
2022-09-05T05:42:19.421Z,4.68
2022-09-05T05:44:57.261Z,3.90
2022-09-05T05:47:31.643Z,4.15
2022-09-05T05:50:01.321Z,4.78
2022-09-05T05:52:31.023Z,4.05
2022-09-05T05:55:51.670Z,4.30
2022-09-05T05:58:32.749Z,3.40
2022-09-05T06:01:31.674Z,3.45
2022-09-05T06:04:32.405Z,4.65
2022-09-05T06:07:26.863Z,4.75
2022-09-05T06:14:55.643Z,3.65
2022-09-05T06:15:03.670Z,4.40
2022-09-05T06:16:53.506Z,3.65
2022-09-05T06:21:40.911Z,4.25
2022-09-05T06:23:02.073Z,4.40
2022-09-05T06:25:44.218Z,3.97
2022-09-05T06:28:25.946Z,4.15
2022-09-05T06:31:31.444Z,4.22
2022-09-05T06:34:32.939Z,4.72
2022-09-05T06:37:39.325Z,4.20
2022-09-05T06:40:42.331Z,4.07
2022-09-05T06:43:33.260Z,4.47
2022-09-05T06:46:54.503Z,3.50
2022-09-05T06:49:42.814Z,2.90
2022-09-05T06:52:46.445Z,2.92
2022-09-05T06:55:43.077Z,3.30
2022-09-05T06:58:29.167Z,3.30
2022-09-05T07:00:59.235Z,3.22
2022-09-05T07:04:33.365Z,3.30
2022-09-05T07:07:11.591Z,3.08
2022-09-05T07:09:52.663Z,3.35
2022-09-05T07:12:31.002Z,3.33
2022-09-05T07:15:08.937Z,3.08
2022-09-05T07:18:06.527Z,3.47
2022-09-05T07:21:16.717Z,3.20
2022-09-05T07:24:07.032Z,3.25
2022-09-05T07:26:52.290Z,3.30
2022-09-05T07:29:23.224Z,3.25
2022-09-05T07:31:55.569Z,2.53
2022-09-05T07:34:32.243Z,2.70
2022-09-05T07:37:16.286Z,2.47
2022-09-05T07:39:53.807Z,2.60
2022-09-05T07:42:30.393Z,2.83
2022-09-05T07:45:06.558Z,3.17
2022-09-05T07:47:38.340Z,2.70
2022-09-05T07:51:07.697Z,2.40
2022-09-05T07:56:47.245Z,2.60
2022-09-05T07:57:01.960Z,2.63
2022-09-05T07:58:52.867Z,2.45
2022-09-05T08:01:22.663Z,2.58
2022-09-05T08:03:56.090Z,2.40
2022-09-05T08:06:46.429Z,2.50
2022-09-05T08:10:06.220Z,2.33
2022-09-05T08:12:16.089Z,2.03
2022-09-05T08:14:52.937Z,2.78
2022-09-05T08:17:27.478Z,2.33
2022-09-05T08:20:10.111Z,2.20
2022-09-05T08:22:52.621Z,2.78
2022-09-05T08:25:36.257Z,2.58
2022-09-05T08:31:20.696Z,2.20
2022-09-05T08:33:53.268Z,2.00
2022-09-05T08:36:40.487Z,2.30
2022-09-05T08:39:11.698Z,2.20
2022-09-05T08:41:56.113Z,2.28
2022-09-05T08:46:39.703Z,2.22
2022-09-05T08:47:45.556Z,2.13
2022-09-05T08:50:20.980Z,1.88
2022-09-05T08:53:28.151Z,1.90
2022-09-05T08:56:06.552Z,2.00
2022-09-05T08:58:49.906Z,1.90
2022-09-05T09:02:04.379Z,1.88
2022-09-05T09:05:01.374Z,2.00
2022-09-05T09:07:50.772Z,2.00
2022-09-05T09:10:46.593Z,2.40
2022-09-05T09:13:35.167Z,2.53
2022-09-05T09:16:39.843Z,1.95
2022-09-05T09:19:17.836Z,2.10
2022-09-05T09:22:14.782Z,1.70
2022-09-05T09:25:11.256Z,1.83
2022-09-05T09:28:43.706Z,1.67
2022-09-05T09:30:43.690Z,1.92
2022-09-05T09:33:20.681Z,2.03
2022-09-05T09:36:07.959Z,2.33
2022-09-05T09:38:41.351Z,2.10
2022-09-05T09:41:29.927Z,2.00
2022-09-05T09:44:15.704Z,1.88
2022-09-05T09:46:45.630Z,2.28
2022-09-05T09:49:46.492Z,2.40
2022-09-05T09:52:35.857Z,1.77
2022-09-05T09:55:24.705Z,2.03
2022-09-05T09:58:15.909Z,1.83
2022-09-05T10:00:55.315Z,1.85
2022-09-05T10:08:02.232Z,1.95
2022-09-05T10:10:53.994Z,2.20
2022-09-05T10:11:35.126Z,1.90
2022-09-05T10:14:49.232Z,2.10
2022-09-05T10:17:29.257Z,2.38
2022-09-05T10:20:10.302Z,3.20
2022-09-05T10:22:52.031Z,4.35
2022-09-05T10:25:36.979Z,4.03
2022-09-05T10:28:05.408Z,3.63
2022-09-05T10:32:13.588Z,3.05
2022-09-05T10:35:15.176Z,3.08
2022-09-05T10:37:05.383Z,2.55
2022-09-05T10:39:35.590Z,2.55
2022-09-05T10:42:09.075Z,2.10
2022-09-05T10:44:46.680Z,1.95
2022-09-05T10:47:38.577Z,1.70
2022-09-05T10:50:33.869Z,1.90
2022-09-05T10:53:28.386Z,1.70
2022-09-05T10:56:38.340Z,1.90
2022-09-05T11:02:18.723Z,1.40
2022-09-05T11:02:34.731Z,1.55
2022-09-05T11:05:23.221Z,1.45
2022-09-05T11:08:08.401Z,1.42
2022-09-05T11:11:04.664Z,1.60
2022-09-05T11:13:47.760Z,1.40
2022-09-05T11:16:27.568Z,3.22
2022-09-05T11:19:04.151Z,1.83
2022-09-05T11:22:12.092Z,1.80
2022-09-05T11:24:58.198Z,1.30
2022-09-05T11:27:44.317Z,1.42
2022-09-05T11:30:31.039Z,1.52
2022-09-05T11:36:56.750Z,1.77
2022-09-05T11:39:52.305Z,1.70
2022-09-05T11:40:04.114Z,1.60
2022-09-05T11:42:30.567Z,1.70
2022-09-05T11:45:22.409Z,1.70
2022-09-05T11:48:28.345Z,2.47
2022-09-05T11:51:33.483Z,1.85
2022-09-05T11:54:30.510Z,1.85
2022-09-05T11:57:33.504Z,2.70
2022-09-05T12:00:32.813Z,3.00
2022-09-05T12:03:57.479Z,3.90
2022-09-05T12:06:57.564Z,3.03
2022-09-05T12:09:54.457Z,3.85
2022-09-05T12:12:41.626Z,3.33
2022-09-05T12:15:22.494Z,2.88
2022-09-05T12:18:32.761Z,2.92
2022-09-05T12:21:12.430Z,2.92
2022-09-05T12:25:17.204Z,2.72
2022-09-05T12:27:41.953Z,2.22
2022-09-05T12:30:16.251Z,2.50
2022-09-05T12:36:01.368Z,1.92
2022-09-05T12:36:13.059Z,1.85
2022-09-05T12:41:33.148Z,1.90
2022-09-05T12:42:14.970Z,1.88
2022-09-05T12:47:21.269Z,1.80
2022-09-05T12:50:03.566Z,2.03
2022-09-05T12:52:44.787Z,1.88
2022-09-05T12:55:40.806Z,2.20
2022-09-05T13:03:02.646Z,2.10
2022-09-05T13:03:05.547Z,2.38
2022-09-05T13:04:19.958Z,2.42
2022-09-05T13:06:58.702Z,2.50
2022-09-05T13:14:47.169Z,3.00
2022-09-05T13:15:39.336Z,3.13
2022-09-05T13:18:13.322Z,4.80
2022-09-05T13:21:08.629Z,3.58
2022-09-05T13:24:01.663Z,4.90
2022-09-05T13:26:40.153Z,4.13
2022-09-05T13:29:13.379Z,4.28
2022-09-05T13:37:55.563Z,5.07
2022-09-05T13:37:59.206Z,4.30
2022-09-05T13:38:13.077Z,5.97
2022-09-05T13:40:47.397Z,4.68
2022-09-05T13:43:21.942Z,4.45
2022-09-05T13:46:15.665Z,5.47
2022-09-05T13:52:20.529Z,7.20
2022-09-05T13:55:05.354Z,7.95
2022-09-05T13:57:38.949Z,6.55
2022-09-05T14:00:18.753Z,6.90
2022-09-05T14:06:46.057Z,8.40
2022-09-05T14:09:51.572Z,10.15
2022-09-05T14:12:29.585Z,11.27
2022-09-05T14:15:37.767Z,10.20
2022-09-05T14:19:01.814Z,7.57
2022-09-05T14:21:31.730Z,7.30
2022-09-05T14:24:03.459Z,6.45
2022-09-05T14:26:42.660Z,5.30
2022-09-05T14:29:14.246Z,4.57
2022-09-05T14:37:34.618Z,4.18
2022-09-05T14:38:01.568Z,2.83
2022-09-05T14:38:11.553Z,2.33
2022-09-05T14:41:29.063Z,1.88
2022-09-05T14:44:16.433Z,1.90
2022-09-05T14:47:35.042Z,1.60
2022-09-05T14:52:37.749Z,1.95
2022-09-05T15:02:44.208Z,1.60
2022-09-05T15:02:54.897Z,1.58
2022-09-05T15:06:35.940Z,1.48
2022-09-05T15:12:15.014Z,1.85
2022-09-05T15:12:20.231Z,1.95
2022-09-05T15:14:50.381Z,1.80
2022-09-05T15:17:23.724Z,2.10
2022-09-05T15:20:05.490Z,1.88
2022-09-05T15:22:37.635Z,1.90
2022-09-05T15:25:17.082Z,2.05
2022-09-05T15:27:46.475Z,1.80
2022-09-05T15:30:16.619Z,1.88
2022-09-05T15:32:48.498Z,1.98
2022-09-05T15:35:35.635Z,2.28
2022-09-05T15:38:27.065Z,2.03
2022-09-05T15:41:17.378Z,2.03
2022-09-05T15:44:04.727Z,1.70
2022-09-05T15:46:57.352Z,1.58
2022-09-05T15:52:17.143Z,1.60
2022-09-05T15:55:02.913Z,1.63
2022-09-05T15:57:41.555Z,1.55
2022-09-05T16:00:12.050Z,1.60
2022-09-05T16:02:59.620Z,1.60
2022-09-05T16:10:36.221Z,1.90
2022-09-05T16:10:59.107Z,1.58
2022-09-05T16:16:20.128Z,1.38
2022-09-05T16:23:17.215Z,1.30
2022-09-05T16:23:23.944Z,1.38
2022-09-05T16:23:46.806Z,1.80
2022-09-05T16:26:25.402Z,1.33
2022-09-05T16:28:52.993Z,1.60
2022-09-05T16:31:45.720Z,1.48
2022-09-05T16:34:30.893Z,1.77
2022-09-05T16:37:20.042Z,1.70
2022-09-05T16:39:54.126Z,1.80
2022-09-05T16:42:46.670Z,2.17
2022-09-05T16:45:39.649Z,1.70
2022-09-05T16:48:46.925Z,1.95
2022-09-05T16:51:51.435Z,1.75
2022-09-05T16:54:40.352Z,1.70
2022-09-05T16:57:17.798Z,1.90
2022-09-05T16:59:46.460Z,1.67
2022-09-05T17:02:44.373Z,1.70
2022-09-05T17:05:13.427Z,1.85
2022-09-05T17:08:09.751Z,2.17
2022-09-05T17:10:57.771Z,2.35
2022-09-05T17:13:43.429Z,2.45
2022-09-05T17:16:19.529Z,4.28
2022-09-05T17:18:51.258Z,3.93
2022-09-05T17:23:59.511Z,2.85
2022-09-05T17:29:16.696Z,2.88
2022-09-05T17:29:42.578Z,2.15
2022-09-05T17:32:56.502Z,2.50
2022-09-05T17:35:32.659Z,2.40
2022-09-05T17:38:14.990Z,3.23
2022-09-05T17:41:12.740Z,4.90
2022-09-05T17:43:41.598Z,4.88
2022-09-05T17:46:20.448Z,5.28
2022-09-05T17:48:52.818Z,5.57
2022-09-05T17:51:34.737Z,4.55
2022-09-05T17:54:16.082Z,5.22
2022-09-05T17:56:47.405Z,3.42
2022-09-05T17:59:17.488Z,2.63
2022-09-05T18:02:03.493Z,2.42
2022-09-05T18:04:51.065Z,2.40
2022-09-05T18:07:28.703Z,2.80
2022-09-05T18:10:14.810Z,2.40
2022-09-05T18:13:12.415Z,2.28
2022-09-05T18:15:36.422Z,2.13
2022-09-05T18:18:08.786Z,2.15
2022-09-05T18:21:21.203Z,2.40
2022-09-05T18:24:05.005Z,2.88
2022-09-05T18:26:42.910Z,2.40
2022-09-05T18:29:28.743Z,1.40
2022-09-05T18:33:55.576Z,2.13
2022-09-05T18:35:54.277Z,2.47
2022-09-05T18:38:50.037Z,2.20
2022-09-05T18:41:19.195Z,2.40
2022-09-05T18:44:01.635Z,2.35
2022-09-05T18:46:51.800Z,2.83
2022-09-05T18:50:24.687Z,3.00
2022-09-05T18:52:34.040Z,2.40
2022-09-05T18:56:10.848Z,2.10
2022-09-05T18:58:26.919Z,2.60
2022-09-05T19:00:56.072Z,2.80
2022-09-05T19:03:29.027Z,2.38
2022-09-05T19:06:34.634Z,2.10
2022-09-05T19:08:53.991Z,1.90
2022-09-05T19:11:30.738Z,2.10
2022-09-05T19:14:18.376Z,2.10
2022-09-05T19:17:02.559Z,2.45
2022-09-05T19:19:31.568Z,2.35
2022-09-05T19:23:06.683Z,2.10
2022-09-05T19:24:49.487Z,2.28
2022-09-05T19:29:56.305Z,2.53
2022-09-05T19:36:48.761Z,2.92
2022-09-05T19:36:55.834Z,2.50
2022-09-05T19:37:07.382Z,2.60
2022-09-05T19:42:00.341Z,2.63
2022-09-05T19:47:27.577Z,2.30
2022-09-05T19:47:34.474Z,2.88
2022-09-05T19:48:07.774Z,2.50
2022-09-05T19:53:07.686Z,2.90
2022-09-05T19:55:37.172Z,2.92
2022-09-05T19:58:19.076Z,2.70
2022-09-05T20:01:03.713Z,3.10
2022-09-05T20:03:39.955Z,3.00
2022-09-05T20:06:30.301Z,2.83
2022-09-05T20:09:19.206Z,2.92
2022-09-05T20:12:15.895Z,2.92
2022-09-05T20:14:43.084Z,3.20
2022-09-05T20:17:26.188Z,2.85
2022-09-05T20:20:12.408Z,2.92
2022-09-05T20:22:49.509Z,3.05
2022-09-05T20:25:41.682Z,2.70
2022-09-05T20:28:35.789Z,3.00
2022-09-05T20:31:08.523Z,2.70
2022-09-05T20:33:48.180Z,2.83
2022-09-05T20:43:08.493Z,3.03
2022-09-05T20:43:18.213Z,2.55
2022-09-05T20:43:35.846Z,2.90
2022-09-05T20:45:52.039Z,2.47
2022-09-05T20:54:13.408Z,2.50
2022-09-05T20:54:22.575Z,2.50
2022-09-05T20:54:31.630Z,2.80
2022-09-05T20:56:59.844Z,2.80
2022-09-05T20:59:31.881Z,2.58
2022-09-05T21:02:02.327Z,2.60
2022-09-05T21:04:35.337Z,2.80
2022-09-05T21:07:21.826Z,2.60
2022-09-05T21:09:53.158Z,2.58
2022-09-05T21:12:29.380Z,2.60
2022-09-05T21:15:02.048Z,2.50
2022-09-05T21:17:31.464Z,2.22
2022-09-05T21:20:00.550Z,2.38
2022-09-05T21:22:43.507Z,2.25
2022-09-05T21:25:20.212Z,2.25
2022-09-05T21:28:20.570Z,2.38
2022-09-05T21:30:47.975Z,2.28
2022-09-05T21:33:24.209Z,2.03
2022-09-05T21:36:04.760Z,2.10
2022-09-05T21:38:43.239Z,2.15
2022-09-05T21:41:10.693Z,2.42
2022-09-05T21:47:33.203Z,2.00
2022-09-05T21:47:42.805Z,2.30
2022-09-05T21:49:21.988Z,2.20
2022-09-05T21:51:53.309Z,1.85
2022-09-05T21:59:20.624Z,1.80
2022-09-05T21:59:22.002Z,2.30
2022-09-05T22:00:11.211Z,1.90
2022-09-05T22:02:49.446Z,2.00
2022-09-05T22:05:17.263Z,2.33
2022-09-05T22:07:44.325Z,1.95
2022-09-05T22:10:11.758Z,1.90
2022-09-05T22:12:39.337Z,2.00
2022-09-05T22:15:26.604Z,1.85
2022-09-05T22:18:14.743Z,1.67
2022-09-05T22:20:46.218Z,2.10
2022-09-05T22:23:20.697Z,2.10
2022-09-05T22:25:47.951Z,1.98
2022-09-05T22:28:21.579Z,2.40
2022-09-05T22:30:56.355Z,2.00
2022-09-05T22:33:25.201Z,2.10
2022-09-05T22:35:52.297Z,2.20
2022-09-05T22:38:20.166Z,2.45
2022-09-05T22:40:47.996Z,2.90
2022-09-05T22:43:17.007Z,2.25
2022-09-05T22:45:44.041Z,2.20
2022-09-05T22:48:13.716Z,2.20
2022-09-05T22:50:42.274Z,1.80
2022-09-05T22:53:10.010Z,1.90
2022-09-05T22:55:38.935Z,1.67
2022-09-05T22:58:08.100Z,2.00
2022-09-05T23:00:36.376Z,2.10
2022-09-05T23:03:06.080Z,1.92
2022-09-05T23:05:34.171Z,1.70
2022-09-05T23:08:03.531Z,2.05
2022-09-05T23:10:31.685Z,2.13
2022-09-05T23:12:58.979Z,2.00
2022-09-05T23:15:26.850Z,2.85
2022-09-05T23:17:55.343Z,3.75
2022-09-05T23:20:25.555Z,3.38
2022-09-05T23:22:52.868Z,3.95
2022-09-05T23:25:21.566Z,3.90
2022-09-05T23:27:49.354Z,3.83
2022-09-05T23:30:17.011Z,4.18
2022-09-05T23:32:48.923Z,3.35
2022-09-05T23:35:17.024Z,3.00
2022-09-05T23:37:45.413Z,2.08
2022-09-05T23:40:17.981Z,2.08
2022-09-05T23:42:52.906Z,1.60
2022-09-05T23:45:20.481Z,1.70
2022-09-05T23:47:47.696Z,1.50
2022-09-05T23:50:15.655Z,1.50
2022-09-05T23:52:43.903Z,1.50
2022-09-05T23:55:15.911Z,1.60
2022-09-05T23:57:43.562Z,1.48
